createdAt,value
2018-12-02T00:00:34.608Z,77.80
2018-12-02T00:03:05.689Z,77.70
2018-12-02T00:05:34.476Z,77.80
2018-12-02T00:08:05.698Z,77.90
2018-12-02T00:10:34.023Z,77.90
2018-12-02T00:13:02.364Z,78.00
2018-12-02T00:15:32.428Z,77.90
2018-12-02T00:18:01.480Z,78.10
2018-12-02T00:20:30.471Z,77.80
2018-12-02T00:22:59.683Z,77.40
2018-12-02T00:25:28.075Z,77.30
2018-12-02T00:27:57.981Z,77.50
2018-12-02T00:30:27.894Z,77.30
2018-12-02T00:33:08.762Z,77.70
2018-12-02T00:35:37.180Z,77.40
2018-12-02T00:38:07.428Z,77.50
2018-12-02T00:40:36.609Z,77.90
2018-12-02T00:43:06.556Z,78.10
2018-12-02T00:45:36.597Z,78.40
2018-12-02T00:48:07.365Z,78.00
2018-12-02T00:50:36.388Z,77.90
2018-12-02T00:53:06.476Z,78.20
2018-12-02T00:55:39.201Z,78.50
2018-12-02T00:58:08.092Z,77.20
2018-12-02T01:00:36.458Z,77.50
2018-12-02T01:03:06.664Z,77.90
2018-12-02T01:05:34.934Z,78.20
2018-12-02T01:08:03.982Z,78.20
2018-12-02T01:10:32.442Z,77.30
2018-12-02T01:13:01.093Z,77.20
2018-12-02T01:15:31.177Z,77.70
2018-12-02T01:18:00.438Z,78.60
2018-12-02T01:20:29.993Z,78.60
2018-12-02T01:22:59.998Z,78.20
2018-12-02T01:25:28.905Z,77.60
2018-12-02T01:27:58.038Z,78.10
2018-12-02T01:30:26.513Z,78.20
2018-12-02T01:32:55.556Z,77.80
2018-12-02T01:35:24.234Z,77.70
2018-12-02T01:37:52.956Z,77.80
2018-12-02T01:40:22.487Z,78.20
2018-12-02T01:42:52.335Z,78.60
2018-12-02T01:45:25.294Z,78.30
2018-12-02T01:47:55.521Z,77.30
2018-12-02T01:50:25.101Z,76.90
2018-12-02T01:52:55.488Z,77.20
2018-12-02T01:55:24.004Z,77.20
2018-12-02T01:57:52.420Z,76.30
2018-12-02T02:00:26.394Z,76.60
2018-12-02T02:02:55.766Z,76.30
2018-12-02T02:05:26.030Z,76.90
2018-12-02T02:07:54.557Z,76.80
2018-12-02T02:10:24.036Z,77.00
2018-12-02T02:12:52.517Z,77.80
2018-12-02T02:15:21.327Z,77.20
2018-12-02T02:17:49.626Z,77.00
2018-12-02T02:20:19.354Z,77.00
2018-12-02T02:22:48.192Z,77.60
2018-12-02T02:25:18.400Z,78.20
2018-12-02T02:27:47.948Z,78.10
2018-12-02T02:30:22.458Z,77.80
2018-12-02T02:32:50.851Z,77.80
2018-12-02T02:35:20.864Z,78.10
2018-12-02T02:37:50.285Z,78.40
2018-12-02T02:40:23.446Z,78.50
2018-12-02T02:42:52.334Z,78.40
2018-12-02T02:45:20.682Z,78.60
2018-12-02T02:47:49.052Z,78.90
2018-12-02T02:50:21.237Z,78.90
2018-12-02T02:52:51.697Z,78.90
2018-12-02T02:55:20.048Z,78.60
2018-12-02T02:57:48.691Z,78.60
2018-12-02T03:00:19.593Z,78.90
2018-12-02T03:02:47.967Z,78.80
2018-12-02T03:05:16.841Z,78.50
2018-12-02T03:07:45.957Z,78.30
2018-12-02T03:10:19.412Z,78.60
2018-12-02T03:12:51.534Z,78.90
2018-12-02T03:15:20.681Z,78.90
2018-12-02T03:17:49.007Z,78.60
2018-12-02T03:20:19.531Z,78.80
2018-12-02T03:22:48.964Z,79.00
2018-12-02T03:25:18.687Z,78.70
2018-12-02T03:27:48.813Z,78.20
2018-12-02T03:30:18.961Z,78.40
2018-12-02T03:32:47.772Z,78.00
2018-12-02T03:35:17.333Z,78.40
2018-12-02T03:37:46.121Z,78.40
2018-12-02T03:40:18.824Z,77.90
2018-12-02T03:42:47.341Z,77.60
2018-12-02T03:45:18.255Z,77.80
2018-12-02T03:47:46.630Z,77.80
2018-12-02T03:50:18.108Z,77.60
2018-12-02T03:52:46.349Z,77.80
2018-12-02T03:55:15.742Z,77.30
2018-12-02T03:57:44.208Z,77.20
2018-12-02T04:00:18.614Z,77.10
2018-12-02T04:02:47.177Z,76.80
2018-12-02T04:05:16.577Z,76.70
2018-12-02T04:07:45.169Z,76.20
2018-12-02T04:10:16.136Z,75.80
2018-12-02T04:12:45.383Z,75.60
2018-12-02T04:15:16.321Z,75.40
2018-12-02T04:17:45.561Z,75.20
2018-12-02T04:20:15.868Z,75.30
2018-12-02T04:22:44.720Z,74.90
2018-12-02T04:25:15.413Z,74.80
2018-12-02T04:27:44.311Z,74.70
2018-12-02T04:30:14.793Z,75.20
2018-12-02T04:32:43.149Z,74.70
2018-12-02T04:35:13.345Z,73.80
2018-12-02T04:37:42.538Z,73.60
2018-12-02T04:40:12.812Z,73.50
2018-12-02T04:42:41.607Z,74.10
2018-12-02T04:45:19.212Z,74.50
2018-12-02T04:47:47.659Z,73.50
2018-12-02T04:50:18.347Z,73.50
2018-12-02T04:52:46.790Z,73.50
2018-12-02T04:55:15.147Z,73.50
2018-12-02T04:57:43.816Z,72.90
2018-12-02T05:00:13.031Z,72.80
2018-12-02T05:02:41.441Z,72.60
2018-12-02T05:05:10.875Z,72.40
2018-12-02T05:07:39.909Z,72.10
2018-12-02T05:10:20.061Z,71.70
2018-12-02T05:12:48.639Z,72.60
2018-12-02T05:15:17.771Z,72.70
2018-12-02T05:17:46.195Z,73.30
2018-12-02T05:20:15.496Z,72.40
2018-12-02T05:22:43.804Z,71.70
2018-12-02T05:25:17.659Z,71.50
2018-12-02T05:27:42.820Z,71.70
2018-12-02T05:30:12.569Z,72.00
2018-12-02T05:32:41.063Z,71.50
2018-12-02T05:35:10.219Z,71.30
2018-12-02T05:37:38.690Z,71.10
2018-12-02T05:40:16.326Z,70.40
2018-12-02T05:42:45.219Z,69.70
2018-12-02T05:45:14.476Z,69.70
2018-12-02T05:47:43.150Z,69.70
2018-12-02T05:50:24.170Z,69.50
2018-12-02T05:52:59.640Z,69.40
2018-12-02T05:55:29.418Z,69.30
2018-12-02T05:57:57.749Z,69.30
2018-12-02T06:00:26.092Z,69.80
2018-12-02T06:02:55.105Z,70.30
2018-12-02T06:05:23.481Z,70.60
2018-12-02T06:07:51.935Z,71.00
2018-12-02T06:10:21.254Z,71.10
2018-12-02T06:12:49.682Z,71.20
2018-12-02T06:15:18.910Z,70.80
2018-12-02T06:17:47.403Z,70.90
2018-12-02T06:20:22.462Z,70.40
2018-12-02T06:22:51.666Z,70.20
2018-12-02T06:25:20.014Z,69.30
2018-12-02T06:27:48.420Z,68.90
2018-12-02T06:30:20.825Z,68.80
2018-12-02T06:32:51.500Z,69.00
2018-12-02T06:35:19.850Z,68.60
2018-12-02T06:37:48.628Z,69.00
2018-12-02T06:40:21.006Z,69.30
2018-12-02T06:42:49.569Z,69.20
2018-12-02T06:45:17.988Z,69.60
2018-12-02T06:47:46.600Z,69.30
2018-12-02T06:50:21.018Z,69.90
2018-12-02T06:52:49.377Z,70.10
2018-12-02T06:55:30.373Z,70.70
2018-12-02T06:58:16.442Z,70.00
2018-12-02T07:00:51.856Z,70.00
2018-12-02T07:03:27.541Z,69.20
2018-12-02T07:05:55.910Z,69.60
2018-12-02T07:08:24.238Z,70.50
2018-12-02T07:10:53.236Z,71.40
2018-12-02T07:13:21.569Z,70.50
2018-12-02T07:15:49.874Z,70.70
2018-12-02T07:18:20.291Z,70.80
2018-12-02T07:20:55.314Z,71.40
2018-12-02T07:23:23.758Z,71.30
2018-12-02T07:25:52.095Z,70.00
2018-12-02T07:28:20.559Z,70.00
2018-12-02T07:30:49.510Z,70.70
2018-12-02T07:33:17.907Z,70.80
2018-12-02T07:35:46.997Z,68.70
2018-12-02T07:38:42.466Z,69.80
2018-12-02T07:41:10.987Z,70.50
2018-12-02T07:43:39.418Z,70.60
2018-12-02T07:46:07.785Z,72.50
2018-12-02T07:48:36.209Z,72.50
2018-12-02T07:51:04.578Z,73.30
2018-12-02T07:53:32.896Z,73.70
2018-12-02T07:56:01.900Z,73.60
2018-12-02T07:58:30.225Z,73.80
2018-12-02T08:00:59.561Z,74.10
2018-12-02T08:03:27.946Z,74.30
2018-12-02T08:05:56.282Z,73.00
2018-12-02T08:08:25.678Z,71.90
2018-12-02T08:10:54.193Z,70.90
2018-12-02T08:13:22.480Z,71.20
2018-12-02T08:15:53.166Z,71.50
2018-12-02T08:18:21.573Z,71.80
2018-12-02T08:20:50.707Z,70.80
2018-12-02T08:23:19.421Z,70.20
2018-12-02T08:25:47.819Z,70.10
2018-12-02T08:28:16.228Z,70.00
2018-12-02T08:30:45.038Z,70.30
2018-12-02T08:33:13.371Z,69.60
2018-12-02T08:35:42.700Z,70.90
2018-12-02T08:38:15.545Z,71.50
2018-12-02T08:40:43.833Z,70.90
2018-12-02T08:43:12.213Z,71.00
2018-12-02T08:45:40.990Z,71.30
2018-12-02T08:48:09.281Z,73.30
2018-12-02T08:50:37.962Z,74.40
2018-12-02T08:53:06.523Z,74.10
2018-12-02T08:55:34.901Z,74.40
2018-12-02T08:58:03.723Z,74.90
2018-12-02T09:00:32.124Z,72.00
2018-12-02T09:03:02.097Z,73.20
2018-12-02T09:05:30.989Z,73.90
2018-12-02T09:08:00.131Z,73.90
2018-12-02T09:10:30.429Z,73.90
2018-12-02T09:13:01.183Z,74.00
2018-12-02T09:15:30.270Z,74.00
2018-12-02T09:17:58.602Z,74.80
2018-12-02T09:20:29.183Z,74.60
2018-12-02T09:22:57.533Z,74.30
2018-12-02T09:25:25.853Z,73.90
2018-12-02T09:27:56.500Z,74.60
2018-12-02T09:30:27.496Z,75.00
2018-12-02T09:32:55.793Z,74.30
2018-12-02T09:35:24.088Z,74.50
2018-12-02T09:37:52.638Z,76.00
2018-12-02T09:40:22.119Z,75.20
2018-12-02T09:42:53.168Z,75.90
2018-12-02T09:45:23.652Z,77.10
2018-12-02T09:47:52.152Z,75.00
2018-12-02T09:50:21.035Z,75.00
2018-12-02T09:52:49.445Z,76.20
2018-12-02T09:55:24.459Z,76.80
2018-12-02T09:57:53.936Z,77.60
2018-12-02T10:00:22.559Z,77.50
2018-12-02T10:02:51.928Z,78.10
2018-12-02T10:05:20.728Z,78.80
2018-12-02T10:07:49.990Z,79.50
2018-12-02T10:10:22.767Z,79.70
2018-12-02T10:13:04.898Z,79.60
2018-12-02T10:15:33.219Z,79.40
2018-12-02T10:18:01.594Z,78.70
2018-12-02T10:20:30.385Z,79.20
2018-12-02T10:22:59.361Z,78.90
2018-12-02T10:25:27.801Z,78.50
2018-12-02T10:27:56.205Z,79.10
2018-12-02T10:30:26.920Z,79.10
2018-12-02T10:32:56.408Z,79.60
2018-12-02T10:35:26.398Z,79.80
2018-12-02T10:37:55.876Z,79.90
2018-12-02T10:40:25.615Z,78.80
2018-12-02T10:42:54.035Z,79.30
2018-12-02T10:45:27.105Z,78.60
2018-12-02T10:48:01.529Z,78.20
2018-12-02T10:50:34.580Z,78.60
2018-12-02T10:53:04.742Z,79.70
2018-12-02T10:55:40.366Z,79.40
2018-12-02T10:58:17.233Z,78.30
2018-12-02T11:00:51.380Z,78.50
2018-12-02T11:03:19.819Z,77.50
2018-12-02T11:05:49.449Z,78.90
2018-12-02T11:08:17.759Z,79.00
2018-12-02T11:10:52.815Z,79.00
2018-12-02T11:13:21.313Z,79.80
2018-12-02T11:15:50.652Z,80.10
2018-12-02T11:18:19.037Z,80.70
2018-12-02T11:20:47.446Z,80.60
2018-12-02T11:23:15.761Z,80.50
2018-12-02T11:25:44.173Z,80.90
2018-12-02T11:28:13.076Z,80.30
2018-12-02T11:30:41.467Z,79.30
2018-12-02T11:33:09.917Z,79.90
2018-12-02T11:35:38.464Z,79.90
2018-12-02T11:38:07.875Z,79.90
2018-12-02T11:40:37.089Z,80.00
2018-12-02T11:43:06.475Z,80.90
2018-12-02T11:45:34.880Z,81.50
2018-12-02T11:48:03.662Z,82.00
2018-12-02T11:50:32.151Z,82.30
2018-12-02T11:53:00.998Z,82.50
2018-12-02T11:55:29.368Z,83.00
2018-12-02T11:57:58.747Z,82.90
2018-12-02T12:00:29.814Z,83.20
2018-12-02T12:03:02.632Z,82.70
2018-12-02T12:05:31.892Z,82.80
2018-12-02T12:08:06.798Z,82.80
2018-12-02T12:10:35.674Z,83.10
2018-12-02T12:13:04.131Z,83.50
2018-12-02T12:15:32.992Z,83.70
2018-12-02T12:18:01.406Z,84.20
2018-12-02T12:20:34.667Z,84.30
2018-12-02T12:23:03.602Z,84.80
2018-12-02T12:25:32.552Z,84.80
2018-12-02T12:30:34.285Z,85.20
2018-12-02T12:33:02.617Z,85.60
2018-12-02T12:35:31.153Z,86.10
2018-12-02T12:38:00.476Z,86.40
2018-12-02T12:40:30.607Z,87.90
2018-12-02T12:43:04.148Z,88.60
2018-12-02T12:45:32.908Z,89.10
2018-12-02T12:48:01.441Z,89.40
2018-12-02T12:50:29.917Z,89.80
2018-12-02T12:53:00.842Z,90.00
2018-12-02T12:55:29.503Z,89.50
2018-12-02T12:57:57.890Z,89.50
2018-12-02T13:00:26.174Z,89.60
2018-12-02T13:02:54.859Z,88.90
2018-12-02T13:05:25.152Z,89.20
2018-12-02T13:07:54.245Z,89.30
2018-12-02T13:10:23.142Z,89.10
2018-12-02T13:12:52.121Z,88.60
2018-12-02T13:15:21.330Z,88.40
2018-12-02T13:17:55.611Z,88.20
2018-12-02T13:20:25.251Z,88.40
2018-12-02T13:22:58.360Z,87.40
2018-12-02T13:25:27.083Z,86.90
2018-12-02T13:27:55.481Z,87.10
2018-12-02T13:30:23.853Z,86.90
2018-12-02T13:32:56.400Z,86.90
2018-12-02T13:35:24.912Z,86.80
2018-12-02T13:37:53.246Z,86.90
2018-12-02T13:40:23.005Z,87.00
2018-12-02T13:42:57.631Z,86.90
2018-12-02T13:45:27.094Z,86.50
2018-12-02T13:47:55.413Z,86.60
2018-12-02T13:50:23.837Z,86.40
2018-12-02T13:52:53.435Z,86.50
2018-12-02T13:55:23.907Z,86.20
2018-12-02T13:57:52.963Z,84.90
2018-12-02T14:00:26.661Z,84.90
2018-12-02T14:03:00.880Z,84.90
2018-12-02T14:05:29.331Z,84.60
2018-12-02T14:07:58.273Z,84.30
2018-12-02T14:10:26.749Z,84.70
2018-12-02T14:13:02.339Z,84.50
2018-12-02T14:15:46.569Z,84.00
2018-12-02T14:18:22.506Z,83.80
2018-12-02T14:20:51.117Z,83.50
2018-12-02T14:23:20.530Z,83.30
2018-12-02T14:25:49.244Z,83.40
2018-12-02T14:28:21.297Z,83.20
2018-12-02T14:30:50.063Z,83.10
2018-12-02T14:33:18.439Z,83.60
2018-12-02T14:35:47.932Z,83.90
2018-12-02T14:38:16.439Z,84.50
2018-12-02T14:40:45.083Z,84.30
2018-12-02T14:43:13.565Z,84.80
2018-12-02T14:45:42.175Z,84.80
2018-12-02T14:48:10.773Z,84.60
2018-12-02T14:50:40.113Z,84.10
2018-12-02T14:53:08.679Z,82.90
2018-12-02T14:55:37.685Z,82.90
2018-12-02T14:58:06.282Z,83.10
2018-12-02T15:00:34.748Z,83.20
2018-12-02T15:03:03.413Z,83.40
2018-12-02T15:05:32.164Z,83.30
2018-12-02T15:08:01.408Z,82.80
2018-12-02T15:10:30.087Z,82.90
2018-12-02T15:12:58.595Z,82.00
2018-12-02T15:15:27.497Z,82.40
2018-12-02T15:17:57.763Z,82.10
2018-12-02T15:20:26.376Z,82.00
2018-12-02T15:23:02.726Z,81.70
2018-12-02T15:25:31.095Z,81.50
2018-12-02T15:28:00.129Z,81.40
2018-12-02T15:30:28.547Z,81.70
2018-12-02T15:32:56.989Z,81.40
2018-12-02T15:35:30.880Z,81.30
2018-12-02T15:38:00.640Z,80.90
2018-12-02T15:40:29.570Z,81.00
2018-12-02T15:42:58.256Z,80.40
2018-12-02T15:45:27.164Z,80.30
2018-12-02T15:47:55.524Z,80.00
2018-12-02T15:50:26.169Z,80.10
2018-12-02T15:52:54.630Z,80.10
2018-12-02T15:55:26.611Z,79.90
2018-12-02T15:57:55.304Z,80.00
2018-12-02T16:00:29.837Z,80.10
2018-12-02T16:02:58.359Z,80.00
2018-12-02T16:05:26.836Z,80.10
2018-12-02T16:07:55.200Z,80.50
2018-12-02T16:10:23.697Z,80.80
2018-12-02T16:12:52.938Z,80.90
2018-12-02T16:15:24.695Z,81.40
2018-12-02T16:17:53.118Z,82.00
2018-12-02T16:20:24.004Z,82.60
2018-12-02T16:22:52.535Z,82.60
2018-12-02T16:25:21.070Z,82.90
2018-12-02T16:27:50.278Z,82.90
2018-12-02T16:30:19.612Z,82.60
2018-12-02T16:32:51.077Z,82.60
2018-12-02T16:35:19.779Z,82.60
2018-12-02T16:37:50.447Z,82.40
2018-12-02T16:40:22.300Z,82.30
2018-12-02T16:42:51.518Z,82.60
2018-12-02T16:45:19.881Z,82.10
2018-12-02T16:47:49.703Z,81.90
2018-12-02T16:50:22.390Z,81.60
2018-12-02T16:52:51.872Z,81.20
2018-12-02T16:55:21.893Z,81.10
2018-12-02T16:57:55.875Z,81.10
2018-12-02T17:00:37.751Z,81.00
2018-12-02T17:03:06.145Z,81.00
2018-12-02T17:05:34.551Z,80.90
2018-12-02T17:08:03.537Z,81.00
2018-12-02T17:10:31.946Z,80.90
2018-12-02T17:13:00.412Z,81.20
2018-12-02T17:15:29.195Z,81.20
2018-12-02T17:17:57.563Z,80.90
2018-12-02T17:20:26.388Z,80.80
2018-12-02T17:22:55.837Z,80.90
2018-12-02T17:25:24.580Z,80.90
2018-12-02T17:27:53.516Z,81.20
2018-12-02T17:30:59.224Z,80.90
2018-12-02T17:33:28.284Z,80.90
2018-12-02T17:35:56.771Z,80.90
2018-12-02T17:38:26.070Z,80.90
2018-12-02T17:40:56.264Z,81.00
2018-12-02T17:43:24.658Z,80.90
2018-12-02T17:45:53.392Z,80.90
2018-12-02T17:48:21.844Z,80.80
2018-12-02T17:50:50.278Z,80.80
2018-12-02T17:53:19.332Z,81.00
2018-12-02T17:55:47.793Z,81.40
2018-12-02T17:58:17.914Z,81.60
2018-12-02T18:00:46.942Z,81.70
2018-12-02T18:03:18.182Z,82.40
2018-12-02T18:05:51.885Z,82.60
2018-12-02T18:08:20.874Z,82.90
2018-12-02T18:10:50.550Z,83.30
2018-12-02T18:13:19.226Z,83.70
2018-12-02T18:15:47.957Z,83.80
2018-12-02T18:18:17.493Z,84.10
2018-12-02T18:20:54.705Z,84.30
2018-12-02T18:23:23.651Z,84.40
2018-12-02T18:25:54.561Z,84.10
2018-12-02T18:28:25.939Z,84.10
2018-12-02T18:31:00.306Z,84.10
2018-12-02T18:33:29.298Z,83.80
2018-12-02T18:36:07.134Z,83.60
2018-12-02T18:38:37.839Z,83.80
2018-12-02T18:41:15.497Z,83.50
2018-12-02T18:43:44.594Z,83.50
2018-12-02T18:46:17.691Z,83.40
2018-12-02T18:48:46.284Z,83.70
2018-12-02T18:51:14.810Z,83.70
2018-12-02T18:53:43.550Z,83.50
2018-12-02T18:56:16.666Z,83.50
2018-12-02T18:58:43.988Z,83.20
2018-12-02T19:01:12.496Z,82.90
2018-12-02T19:03:41.174Z,82.90
2018-12-02T19:06:11.695Z,82.70
2018-12-02T19:08:40.180Z,83.00
2018-12-02T19:11:09.313Z,82.30
2018-12-02T19:13:43.624Z,82.20
2018-12-02T19:16:18.670Z,82.30
2018-12-02T19:18:52.088Z,82.60
2018-12-02T19:21:28.706Z,82.20
2018-12-02T19:23:58.284Z,82.40
2018-12-02T19:26:35.288Z,82.00
2018-12-02T19:29:04.264Z,81.60
2018-12-02T19:31:35.175Z,81.80
2018-12-02T19:34:06.801Z,81.80
2018-12-02T19:36:45.595Z,81.40
2018-12-02T19:39:17.364Z,81.30
2018-12-02T19:41:49.991Z,81.30
2018-12-02T19:44:19.700Z,81.20
2018-12-02T19:46:48.179Z,81.30
2018-12-02T19:49:16.952Z,81.40
2018-12-02T19:51:45.485Z,81.50
2018-12-02T19:54:13.941Z,81.60
2018-12-02T19:56:43.502Z,81.80
2018-12-02T19:59:14.293Z,81.60
2018-12-02T20:01:43.353Z,81.50
2018-12-02T20:04:12.427Z,81.20
2018-12-02T20:06:44.913Z,80.90
2018-12-02T20:09:18.956Z,80.90
2018-12-02T20:11:55.174Z,80.90
2018-12-02T20:14:24.141Z,80.50
2018-12-02T20:16:53.402Z,80.80
2018-12-02T20:19:27.623Z,81.10
2018-12-02T20:21:56.214Z,81.00
2018-12-02T20:24:32.987Z,80.80
2018-12-02T20:27:05.330Z,80.20
2018-12-02T20:29:35.970Z,80.30
2018-12-02T20:32:05.653Z,80.20
2018-12-02T20:34:37.973Z,80.60
2018-12-02T20:37:09.448Z,79.80
2018-12-02T20:39:43.018Z,79.80
2018-12-02T20:42:17.446Z,79.90
2018-12-02T20:44:53.385Z,80.30
2018-12-02T20:47:27.556Z,79.90
2018-12-02T20:50:02.072Z,80.10
2018-12-02T20:52:34.721Z,80.70
2018-12-02T20:55:03.582Z,79.80
2018-12-02T20:57:40.895Z,79.60
2018-12-02T21:00:18.785Z,79.60
2018-12-02T21:03:23.908Z,79.80
2018-12-02T21:06:34.363Z,80.00
2018-12-02T21:09:06.365Z,80.60
2018-12-02T21:11:40.361Z,80.70
2018-12-02T21:14:05.839Z,81.10
2018-12-02T21:16:34.330Z,81.80
2018-12-02T21:19:03.234Z,82.00
2018-12-02T21:21:37.204Z,82.70
2018-12-02T21:24:03.426Z,83.40
2018-12-02T21:26:32.241Z,83.60
2018-12-02T21:29:00.971Z,83.60
2018-12-02T21:31:30.838Z,83.60
2018-12-02T21:34:01.776Z,84.00
2018-12-02T21:36:31.809Z,83.70
2018-12-02T21:39:01.176Z,83.60
2018-12-02T21:41:29.772Z,83.70
2018-12-02T21:43:58.184Z,83.70
2018-12-02T21:46:26.624Z,84.10
2018-12-02T21:48:55.966Z,84.40
2018-12-02T21:51:24.467Z,84.60
2018-12-02T21:53:53.351Z,84.70
2018-12-02T21:56:22.468Z,85.40
2018-12-02T21:58:51.772Z,85.50
2018-12-02T22:01:22.514Z,85.40
2018-12-02T22:03:51.033Z,86.10
2018-12-02T22:06:19.999Z,86.40
2018-12-02T22:08:49.169Z,87.00
2018-12-02T22:11:18.358Z,87.20
2018-12-02T22:13:46.805Z,87.60
2018-12-02T22:16:15.142Z,87.90
2018-12-02T22:18:44.887Z,87.90
2018-12-02T22:21:13.162Z,87.90
2018-12-02T22:23:41.622Z,87.90
2018-12-02T22:26:10.148Z,87.80
2018-12-02T22:28:41.481Z,88.30
2018-12-02T22:31:10.285Z,88.40
2018-12-02T22:33:38.598Z,88.70
2018-12-02T22:36:13.791Z,89.80
2018-12-02T22:38:37.333Z,89.60
2018-12-02T22:41:06.428Z,89.50
2018-12-02T22:43:35.115Z,89.80
2018-12-02T22:46:03.885Z,90.10
2018-12-02T22:48:33.133Z,90.10
2018-12-02T22:51:01.859Z,90.00
2018-12-02T22:53:30.276Z,90.10
2018-12-02T22:55:59.901Z,90.40
2018-12-02T22:58:31.423Z,90.60
2018-12-02T23:01:04.992Z,90.70
2018-12-02T23:03:33.387Z,90.90
2018-12-02T23:06:01.919Z,91.40
2018-12-02T23:08:30.773Z,91.20
2018-12-02T23:10:59.294Z,91.30
2018-12-02T23:13:27.661Z,91.40
2018-12-02T23:15:56.585Z,91.50
2018-12-02T23:18:24.889Z,91.50
2018-12-02T23:20:54.672Z,91.40
2018-12-02T23:23:24.147Z,91.20
2018-12-02T23:25:56.440Z,91.20
2018-12-02T23:28:31.871Z,91.20
2018-12-02T23:31:01.367Z,91.10
2018-12-02T23:33:29.773Z,91.10
2018-12-02T23:35:58.235Z,91.10
2018-12-02T23:38:26.668Z,91.20
2018-12-02T23:40:55.190Z,91.00
2018-12-02T23:43:24.228Z,90.70
2018-12-02T23:45:53.236Z,90.90
2018-12-02T23:48:21.831Z,91.00
2018-12-02T23:50:50.201Z,91.00
2018-12-02T23:53:18.830Z,90.90
2018-12-02T23:55:47.155Z,90.90
2018-12-02T23:58:16.266Z,90.70
